sensor_id;sensor_type;location;lat;lon;timestamp;pressure;altitude;pressure_sealevel;temperature
72054;BMP280;59918;51.280;7.950;2023-06-26T00:01:06;97849.41;;;20.98
72054;BMP280;59918;51.280;7.950;2023-06-26T00:03:31;97842.66;;;20.97
72054;BMP280;59918;51.280;7.950;2023-06-26T00:05:56;97849.41;;;20.98
72054;BMP280;59918;51.280;7.950;2023-06-26T00:08:21;97848.66;;;20.97
72054;BMP280;59918;51.280;7.950;2023-06-26T00:10:47;97834.81;;;20.97
72054;BMP280;59918;51.280;7.950;2023-06-26T00:13:12;97838.97;;;20.98
72054;BMP280;59918;51.280;7.950;2023-06-26T00:15:43;97841.06;;;21.01
72054;BMP280;59918;51.280;7.950;2023-06-26T00:18:08;97837.13;;;20.98
72054;BMP280;59918;51.280;7.950;2023-06-26T00:20:34;97843.94;;;20.94
72054;BMP280;59918;51.280;7.950;2023-06-26T00:22:59;97837.94;;;20.94
72054;BMP280;59918;51.280;7.950;2023-06-26T00:25:25;97834.56;;;20.93
72054;BMP280;59918;51.280;7.950;2023-06-26T00:27:53;97828.25;;;20.94
72054;BMP280;59918;51.280;7.950;2023-06-26T00:30:18;97832.72;;;20.94
72054;BMP280;59918;51.280;7.950;2023-06-26T00:32:43;97834.81;;;20.97
72054;BMP280;59918;51.280;7.950;2023-06-26T00:35:08;97833.72;;;21.03
72054;BMP280;59918;51.280;7.950;2023-06-26T00:37:34;97841.03;;;21.06
72054;BMP280;59918;51.280;7.950;2023-06-26T00:39:59;97835.28;;;21.04
72054;BMP280;59918;51.280;7.950;2023-06-26T00:42:24;97838.16;;;21.02
72054;BMP280;59918;51.280;7.950;2023-06-26T00:44:53;97830.81;;;21.04
72054;BMP280;59918;51.280;7.950;2023-06-26T00:47:18;97838.41;;;21.06
72054;BMP280;59918;51.280;7.950;2023-06-26T00:49:44;97837.91;;;21.04
72054;BMP280;59918;51.280;7.950;2023-06-26T00:52:09;97833.44;;;21.04
72054;BMP280;59918;51.280;7.950;2023-06-26T00:54:34;97835.03;;;21.05
72054;BMP280;59918;51.280;7.950;2023-06-26T00:57:00;97824.56;;;21.00
72054;BMP280;59918;51.280;7.950;2023-06-26T00:59:25;97828.25;;;20.94
72054;BMP280;59918;51.280;7.950;2023-06-26T01:01:53;97835.88;;;20.91
72054;BMP280;59918;51.280;7.950;2023-06-26T01:04:18;97820.19;;;20.86
72054;BMP280;59918;51.280;7.950;2023-06-26T01:06:47;97828.31;;;20.85
72054;BMP280;59918;51.280;7.950;2023-06-26T01:09:18;97822.03;;;20.81
72054;BMP280;59918;51.280;7.950;2023-06-26T01:11:44;97821.78;;;20.77
72054;BMP280;59918;51.280;7.950;2023-06-26T01:14:10;97821.53;;;20.79
72054;BMP280;59918;51.280;7.950;2023-06-26T01:16:35;97819.69;;;20.79
72054;BMP280;59918;51.280;7.950;2023-06-26T01:19:10;97810.03;;;20.80
72054;BMP280;59918;51.280;7.950;2023-06-26T01:21:43;97817.09;;;20.74
72054;BMP280;59918;51.280;7.950;2023-06-26T01:24:18;97817.91;;;20.70
72054;BMP280;59918;51.280;7.950;2023-06-26T01:26:44;97813.72;;;20.69
72054;BMP280;59918;51.280;7.950;2023-06-26T01:29:10;97811.16;;;20.64
72054;BMP280;59918;51.280;7.950;2023-06-26T01:31:43;97802.00;;;20.66
72054;BMP280;59918;51.280;7.950;2023-06-26T01:34:09;97793.63;;;20.64
72054;BMP280;59918;51.280;7.950;2023-06-26T01:36:35;97800.69;;;20.64
72054;BMP280;59918;51.280;7.950;2023-06-26T01:39:00;97785.78;;;20.64
72054;BMP280;59918;51.280;7.950;2023-06-26T01:41:29;97786.56;;;20.65
72054;BMP280;59918;51.280;7.950;2023-06-26T01:49:31;97786.84;;;20.58
72054;BMP280;59918;51.280;7.950;2023-06-26T01:52:12;97787.88;;;20.57
72054;BMP280;59918;51.280;7.950;2023-06-26T01:55:08;97792.88;;;20.54
72054;BMP280;59918;51.280;7.950;2023-06-26T01:57:41;97794.66;;;20.53
72054;BMP280;59918;51.280;7.950;2023-06-26T02:00:07;97780.06;;;20.48
72054;BMP280;59918;51.280;7.950;2023-06-26T02:02:34;97786.59;;;20.45
72054;BMP280;59918;51.280;7.950;2023-06-26T02:04:59;97782.44;;;20.39
72054;BMP280;59918;51.280;7.950;2023-06-26T02:07:30;97784.81;;;20.36
72054;BMP280;59918;51.280;7.950;2023-06-26T02:09:56;97786.38;;;20.32
72054;BMP280;59918;51.280;7.950;2023-06-26T02:12:21;97783.75;;;20.32
72054;BMP280;59918;51.280;7.950;2023-06-26T02:14:46;97778.03;;;20.35
72054;BMP280;59918;51.280;7.950;2023-06-26T02:17:11;97777.25;;;20.34
72054;BMP280;59918;51.280;7.950;2023-06-26T02:19:40;97785.31;;;20.38
72054;BMP280;59918;51.280;7.950;2023-06-26T02:22:05;97774.88;;;20.38
72054;BMP280;59918;51.280;7.950;2023-06-26T02:24:30;97772.81;;;20.35
72054;BMP280;59918;51.280;7.950;2023-06-26T02:26:56;97769.41;;;20.34
72054;BMP280;59918;51.280;7.950;2023-06-26T02:29:21;97775.41;;;20.35
72054;BMP280;59918;51.280;7.950;2023-06-26T02:31:46;97769.94;;;20.31
72054;BMP280;59918;51.280;7.950;2023-06-26T02:34:12;97759.53;;;20.26
72054;BMP280;59918;51.280;7.950;2023-06-26T02:36:43;97762.91;;;20.27
72054;BMP280;59918;51.280;7.950;2023-06-26T02:39:08;97770.22;;;20.25
72054;BMP280;59918;51.280;7.950;2023-06-26T02:41:33;97770.19;;;20.30
72054;BMP280;59918;51.280;7.950;2023-06-26T02:43:59;97767.31;;;20.31
72054;BMP280;59918;51.280;7.950;2023-06-26T02:46:24;97764.19;;;20.29
72054;BMP280;59918;51.280;7.950;2023-06-26T02:48:52;97763.94;;;20.31
72054;BMP280;59918;51.280;7.950;2023-06-26T02:51:17;97767.06;;;20.33
72054;BMP280;59918;51.280;7.950;2023-06-26T02:53:42;97754.53;;;20.35
72054;BMP280;59918;51.280;7.950;2023-06-26T02:56:08;97751.38;;;20.38
72054;BMP280;59918;51.280;7.950;2023-06-26T02:58:33;97748.75;;;20.38
72054;BMP280;59918;51.280;7.950;2023-06-26T03:00:58;97746.69;;;20.35
72054;BMP280;59918;51.280;7.950;2023-06-26T03:03:23;97752.19;;;20.33
72054;BMP280;59918;51.280;7.950;2023-06-26T03:05:52;97738.09;;;20.34
72054;BMP280;59918;51.280;7.950;2023-06-26T03:08:17;97743.56;;;20.33
72054;BMP280;59918;51.280;7.950;2023-06-26T03:10:42;97750.84;;;20.36
72054;BMP280;59918;51.280;7.950;2023-06-26T03:13:08;97764.44;;;20.38
72054;BMP280;59918;51.280;7.950;2023-06-26T03:15:33;97750.59;;;20.42
72054;BMP280;59918;51.280;7.950;2023-06-26T03:17:58;97752.91;;;20.44
72054;BMP280;59918;51.280;7.950;2023-06-26T03:20:23;97751.88;;;20.45
72054;BMP280;59918;51.280;7.950;2023-06-26T03:22:54;97746.09;;;20.48
72054;BMP280;59918;51.280;7.950;2023-06-26T03:25:20;97755.53;;;20.48
72054;BMP280;59918;51.280;7.950;2023-06-26T03:27:45;97749.75;;;20.51
72054;BMP280;59918;51.280;7.950;2023-06-26T03:30:11;97748.47;;;20.54
72054;BMP280;59918;51.280;7.950;2023-06-26T03:32:36;97750.25;;;20.58
72054;BMP280;59918;51.280;7.950;2023-06-26T03:35:05;97755.47;;;20.63
72054;BMP280;59918;51.280;7.950;2023-06-26T03:37:30;97754.91;;;20.71
72054;BMP280;59918;51.280;7.950;2023-06-26T03:39:55;97754.91;;;20.71
72054;BMP280;59918;51.280;7.950;2023-06-26T03:42:21;97751.28;;;20.72
72054;BMP280;59918;51.280;7.950;2023-06-26T03:44:46;97752.81;;;20.73
72054;BMP280;59918;51.280;7.950;2023-06-26T03:47:11;97755.94;;;20.75
72054;BMP280;59918;51.280;7.950;2023-06-26T03:49:36;97759.06;;;20.77
72054;BMP280;59918;51.280;7.950;2023-06-26T03:52:05;97758.03;;;20.78
72054;BMP280;59918;51.280;7.950;2023-06-26T03:54:30;97762.19;;;20.79
72054;BMP280;59918;51.280;7.950;2023-06-26T03:56:56;97763.47;;;20.86
72054;BMP280;59918;51.280;7.950;2023-06-26T03:59:21;97773.41;;;20.89
72054;BMP280;59918;51.280;7.950;2023-06-26T04:01:49;97770.53;;;20.91
72054;BMP280;59918;51.280;7.950;2023-06-26T04:04:17;97772.09;;;20.92
72054;BMP280;59918;51.280;7.950;2023-06-26T04:06:42;97775.22;;;20.94
72054;BMP280;59918;51.280;7.950;2023-06-26T04:09:07;97768.13;;;20.99
72054;BMP280;59918;51.280;7.950;2023-06-26T04:11:32;97767.88;;;21.01
72054;BMP280;59918;51.280;7.950;2023-06-26T04:13:58;97764.97;;;21.02
72054;BMP280;59918;51.280;7.950;2023-06-26T04:16:25;97773.06;;;21.06
72054;BMP280;59918;51.280;7.950;2023-06-26T04:18:53;97769.41;;;21.07
72054;BMP280;59918;51.280;7.950;2023-06-26T04:21:18;97766.50;;;21.08
72054;BMP280;59918;51.280;7.950;2023-06-26T04:23:44;97768.84;;;21.10
72054;BMP280;59918;51.280;7.950;2023-06-26T04:26:09;97769.88;;;21.14
72054;BMP280;59918;51.280;7.950;2023-06-26T04:28:42;97761.50;;;21.17
72054;BMP280;59918;51.280;7.950;2023-06-26T04:31:08;97764.63;;;21.19
72054;BMP280;59918;51.280;7.950;2023-06-26T04:33:34;97756.72;;;21.23
72054;BMP280;59918;51.280;7.950;2023-06-26T04:36:06;97759.31;;;21.28
72054;BMP280;59918;51.280;7.950;2023-06-26T04:38:32;97764.00;;;21.31
72054;BMP280;59918;51.280;7.950;2023-06-26T04:40:58;97760.06;;;21.34
72054;BMP280;59918;51.280;7.950;2023-06-26T04:43:23;97759.78;;;21.40
72054;BMP280;59918;51.280;7.950;2023-06-26T04:45:48;97764.72;;;21.47
72054;BMP280;59918;51.280;7.950;2023-06-26T04:48:20;97762.06;;;21.52
72054;BMP280;59918;51.280;7.950;2023-06-26T04:50:45;97765.72;;;21.56
72054;BMP280;59918;51.280;7.950;2023-06-26T04:53:11;97764.38;;;21.58
72054;BMP280;59918;51.280;7.950;2023-06-26T04:55:36;97764.31;;;21.63
72054;BMP280;59918;51.280;7.950;2023-06-26T04:58:07;97758.03;;;21.64
72054;BMP280;59918;51.280;7.950;2023-06-26T05:00:32;97769.25;;;21.69
72054;BMP280;59918;51.280;7.950;2023-06-26T05:02:57;97760.56;;;21.74
72054;BMP280;59918;51.280;7.950;2023-06-26T05:05:23;97764.72;;;21.80
72054;BMP280;59918;51.280;7.950;2023-06-26T05:07:48;97759.91;;;21.87
72054;BMP280;59918;51.280;7.950;2023-06-26T05:10:13;97758.03;;;21.92
72054;BMP280;59918;51.280;7.950;2023-06-26T05:12:41;97761.13;;;21.99
72054;BMP280;59918;51.280;7.950;2023-06-26T05:15:07;97756.91;;;22.03
72054;BMP280;59918;51.280;7.950;2023-06-26T05:17:32;97764.97;;;22.06
72054;BMP280;59918;51.280;7.950;2023-06-26T05:19:57;97764.16;;;22.11
72054;BMP280;59918;51.280;7.950;2023-06-26T05:22:23;97765.69;;;22.17
72054;BMP280;59918;51.280;7.950;2023-06-26T05:24:48;97770.59;;;22.23
72054;BMP280;59918;51.280;7.950;2023-06-26T05:27:19;97772.09;;;22.29
72054;BMP280;59918;51.280;7.950;2023-06-26T05:29:45;97762.91;;;22.32
72054;BMP280;59918;51.280;7.950;2023-06-26T05:32:11;97774.69;;;22.34
72054;BMP280;59918;51.280;7.950;2023-06-26T05:34:41;97784.88;;;22.35
72054;BMP280;59918;51.280;7.950;2023-06-26T05:37:07;97781.97;;;22.37
72054;BMP280;59918;51.280;7.950;2023-06-26T05:39:33;97792.47;;;22.37
72054;BMP280;59918;51.280;7.950;2023-06-26T05:41:58;97783.56;;;22.38
72054;BMP280;59918;51.280;7.950;2023-06-26T05:44:24;97786.94;;;22.38
72054;BMP280;59918;51.280;7.950;2023-06-26T05:46:49;97793.47;;;22.41
72054;BMP280;59918;51.280;7.950;2023-06-26T05:49:18;97792.91;;;22.44
72054;BMP280;59918;51.280;7.950;2023-06-26T05:51:43;97793.69;;;22.44
72054;BMP280;59918;51.280;7.950;2023-06-26T05:54:09;97803.59;;;22.47
72054;BMP280;59918;51.280;7.950;2023-06-26T05:56:34;97797.25;;;22.53
72054;BMP280;59918;51.280;7.950;2023-06-26T05:59:00;97800.31;;;22.60
72054;BMP280;59918;51.280;7.950;2023-06-26T06:01:26;97808.06;;;22.70
72054;BMP280;59918;51.280;7.950;2023-06-26T06:03:54;97814.47;;;22.82
72054;BMP280;59918;51.280;7.950;2023-06-26T06:06:19;97813.88;;;22.90
72054;BMP280;59918;51.280;7.950;2023-06-26T06:08:44;97812.75;;;22.96
72054;BMP280;59918;51.280;7.950;2023-06-26T06:11:10;97811.81;;;23.10
72054;BMP280;59918;51.280;7.950;2023-06-26T06:13:35;97806.13;;;23.22
72054;BMP280;59918;51.280;7.950;2023-06-26T06:16:01;97800.22;;;23.30
72054;BMP280;59918;51.280;7.950;2023-06-26T06:18:26;97802.84;;;23.30
72054;BMP280;59918;51.280;7.950;2023-06-26T06:20:54;97800.31;;;23.25
72054;BMP280;59918;51.280;7.950;2023-06-26T06:23:20;97800.81;;;23.27
72054;BMP280;59918;51.280;7.950;2023-06-26T06:25:45;97805.91;;;23.37
72054;BMP280;59918;51.280;7.950;2023-06-26T06:28:10;97798.50;;;23.44
72054;BMP280;59918;51.280;7.950;2023-06-26T06:30:35;97798.97;;;23.64
72054;BMP280;59918;51.280;7.950;2023-06-26T06:33:01;97800.25;;;23.66
72054;BMP280;59918;51.280;7.950;2023-06-26T06:35:26;97815.41;;;23.51
72054;BMP280;59918;51.280;7.950;2023-06-26T06:37:55;97823.44;;;23.41
72054;BMP280;59918;51.280;7.950;2023-06-26T06:40:20;97829.53;;;23.37
72054;BMP280;59918;51.280;7.950;2023-06-26T06:42:45;97838.81;;;23.29
72054;BMP280;59918;51.280;7.950;2023-06-26T06:45:10;97835.34;;;23.34
72054;BMP280;59918;51.280;7.950;2023-06-26T06:47:36;97839.97;;;23.42
72054;BMP280;59918;51.280;7.950;2023-06-26T06:50:01;97850.88;;;23.48
72054;BMP280;59918;51.280;7.950;2023-06-26T06:52:27;97850.03;;;23.53
72054;BMP280;59918;51.280;7.950;2023-06-26T06:54:57;97844.16;;;23.61
72054;BMP280;59918;51.280;7.950;2023-06-26T06:57:22;97856.47;;;23.65
72054;BMP280;59918;51.280;7.950;2023-06-26T06:59:47;97851.06;;;23.75
72054;BMP280;59918;51.280;7.950;2023-06-26T07:02:13;97846.69;;;23.84
72054;BMP280;59918;51.280;7.950;2023-06-26T07:04:38;97844.63;;;23.99
72054;BMP280;59918;51.280;7.950;2023-06-26T07:07:07;97835.03;;;24.21
72054;BMP280;59918;51.280;7.950;2023-06-26T07:09:32;97844.44;;;24.27
72054;BMP280;59918;51.280;7.950;2023-06-26T07:11:57;97851.47;;;24.14
72054;BMP280;59918;51.280;7.950;2023-06-26T07:14:23;97853.97;;;24.05
72054;BMP280;59918;51.280;7.950;2023-06-26T07:16:48;97862.41;;;24.20
72054;BMP280;59918;51.280;7.950;2023-06-26T07:19:13;97860.34;;;24.62
72054;BMP280;59918;51.280;7.950;2023-06-26T07:21:38;97854.34;;;25.02
72054;BMP280;59918;51.280;7.950;2023-06-26T07:24:10;97861.06;;;25.08
72054;BMP280;59918;51.280;7.950;2023-06-26T07:26:35;97848.28;;;24.61
72054;BMP280;59918;51.280;7.950;2023-06-26T07:29:00;97840.47;;;24.30
72054;BMP280;59918;51.280;7.950;2023-06-26T07:31:26;97838.63;;;24.12
72054;BMP280;59918;51.280;7.950;2023-06-26T07:33:54;97856.38;;;24.20
72054;BMP280;59918;51.280;7.950;2023-06-26T07:36:20;97863.16;;;24.21
72054;BMP280;59918;51.280;7.950;2023-06-26T07:38:45;97872.31;;;24.23
72054;BMP280;59918;51.280;7.950;2023-06-26T07:41:10;97866.75;;;24.43
72054;BMP280;59918;51.280;7.950;2023-06-26T07:43:36;97861.75;;;24.73
72054;BMP280;59918;51.280;7.950;2023-06-26T07:46:01;97871.97;;;25.01
72054;BMP280;59918;51.280;7.950;2023-06-26T07:48:26;97864.97;;;25.10
72054;BMP280;59918;51.280;7.950;2023-06-26T07:50:57;97867.19;;;24.90
72054;BMP280;59918;51.280;7.950;2023-06-26T07:53:22;97865.91;;;24.61
72054;BMP280;59918;51.280;7.950;2023-06-26T07:55:48;97869.31;;;24.48
72054;BMP280;59918;51.280;7.950;2023-06-26T07:58:13;97880.75;;;24.39
72054;BMP280;59918;51.280;7.950;2023-06-26T08:00:38;97894.91;;;24.24
72054;BMP280;59918;51.280;7.950;2023-06-26T08:03:09;97893.94;;;24.20
72054;BMP280;59918;51.280;7.950;2023-06-26T08:05:34;97898.47;;;24.15
72054;BMP280;59918;51.280;7.950;2023-06-26T08:08:00;97901.69;;;24.12
72054;BMP280;59918;51.280;7.950;2023-06-26T08:10:25;97903.34;;;24.21
72054;BMP280;59918;51.280;7.950;2023-06-26T08:12:50;97899.38;;;24.42
72054;BMP280;59918;51.280;7.950;2023-06-26T08:15:19;97900.19;;;24.56
72054;BMP280;59918;51.280;7.950;2023-06-26T08:17:44;97893.38;;;24.68
72054;BMP280;59918;51.280;7.950;2023-06-26T08:20:10;97910.25;;;24.81
72054;BMP280;59918;51.280;7.950;2023-06-26T08:22:35;97914.84;;;25.02
72054;BMP280;59918;51.280;7.950;2023-06-26T08:25:02;97909.03;;;25.31
72054;BMP280;59918;51.280;7.950;2023-06-26T08:27:27;97899.72;;;25.47
72054;BMP280;59918;51.280;7.950;2023-06-26T08:29:55;97889.78;;;25.58
72054;BMP280;59918;51.280;7.950;2023-06-26T08:32:21;97897.03;;;25.74
72054;BMP280;59918;51.280;7.950;2023-06-26T08:34:46;97878.91;;;25.72
72054;BMP280;59918;51.280;7.950;2023-06-26T08:37:11;97878.84;;;25.51
72054;BMP280;59918;51.280;7.950;2023-06-26T08:39:36;97886.94;;;25.54
72054;BMP280;59918;51.280;7.950;2023-06-26T08:42:01;97887.00;;;25.76
72054;BMP280;59918;51.280;7.950;2023-06-26T08:44:27;97897.25;;;25.99
72054;BMP280;59918;51.280;7.950;2023-06-26T08:46:57;97904.44;;;26.07
72054;BMP280;59918;51.280;7.950;2023-06-26T08:49:25;97905.22;;;26.07
72054;BMP280;59918;51.280;7.950;2023-06-26T08:52:02;97913.69;;;26.40
72054;BMP280;59918;51.280;7.950;2023-06-26T08:54:34;97914.72;;;26.60
72054;BMP280;59918;51.280;7.950;2023-06-26T08:57:01;97913.97;;;26.60
72054;BMP280;59918;51.280;7.950;2023-06-26T08:59:27;97920.69;;;26.74
72054;BMP280;59918;51.280;7.950;2023-06-26T09:01:56;97923.31;;;26.96
72054;BMP280;59918;51.280;7.950;2023-06-26T09:04:21;97931.28;;;27.04
72054;BMP280;59918;51.280;7.950;2023-06-26T09:06:47;97926.56;;;26.93
72054;BMP280;59918;51.280;7.950;2023-06-26T09:09:12;97930.53;;;26.82
72054;BMP280;59918;51.280;7.950;2023-06-26T09:11:37;97931.69;;;26.89
72054;BMP280;59918;51.280;7.950;2023-06-26T09:14:03;97938.44;;;27.12
72054;BMP280;59918;51.280;7.950;2023-06-26T09:16:31;97931.84;;;27.31
72054;BMP280;59918;51.280;7.950;2023-06-26T09:18:57;97931.78;;;27.53
72054;BMP280;59918;51.280;7.950;2023-06-26T09:21:22;97923.38;;;27.59
72054;BMP280;59918;51.280;7.950;2023-06-26T09:23:49;97935.94;;;27.46
72054;BMP280;59918;51.280;7.950;2023-06-26T09:26:14;97936.94;;;27.19
72054;BMP280;59918;51.280;7.950;2023-06-26T09:28:45;97940.91;;;27.09
72054;BMP280;59918;51.280;7.950;2023-06-26T09:31:10;97930.63;;;27.37
72054;BMP280;59918;51.280;7.950;2023-06-26T09:33:38;97919.69;;;27.94
72054;BMP280;59918;51.280;7.950;2023-06-26T09:36:21;97919.81;;;28.48
72054;BMP280;59918;51.280;7.950;2023-06-26T09:38:47;97928.97;;;28.50
72054;BMP280;59918;51.280;7.950;2023-06-26T09:41:16;97933.66;;;28.53
72054;BMP280;59918;51.280;7.950;2023-06-26T09:43:48;97939.75;;;28.20
72054;BMP280;59918;51.280;7.950;2023-06-26T09:46:27;97943.94;;;27.96
72054;BMP280;59918;51.280;7.950;2023-06-26T09:51:31;97942.25;;;27.36
72054;BMP280;59918;51.280;7.950;2023-06-26T09:54:00;97955.59;;;26.93
72054;BMP280;59918;51.280;7.950;2023-06-26T09:56:27;97953.22;;;26.61
72054;BMP280;59918;51.280;7.950;2023-06-26T09:59:01;97962.13;;;26.43
72054;BMP280;59918;51.280;7.950;2023-06-26T10:01:27;97955.56;;;26.63
72054;BMP280;59918;51.280;7.950;2023-06-26T10:04:02;97956.47;;;27.18
72054;BMP280;59918;51.280;7.950;2023-06-26T10:06:41;97936.59;;;27.68
72054;BMP280;59918;51.280;7.950;2023-06-26T10:09:12;97946.72;;;27.91
72054;BMP280;59918;51.280;7.950;2023-06-26T10:14:15;97936.00;;;28.38
72054;BMP280;59918;51.280;7.950;2023-06-26T10:16:41;97934.56;;;29.11
72054;BMP280;59918;51.280;7.950;2023-06-26T10:19:11;97943.19;;;29.65
72054;BMP280;59918;51.280;7.950;2023-06-26T10:21:38;97936.53;;;29.88
72054;BMP280;59918;51.280;7.950;2023-06-26T10:24:13;97934.38;;;29.81
72054;BMP280;59918;51.280;7.950;2023-06-26T10:26:44;97936.00;;;29.74
72054;BMP280;59918;51.280;7.950;2023-06-26T10:29:14;97941.53;;;29.52
72054;BMP280;59918;51.280;7.950;2023-06-26T10:31:43;97947.44;;;28.92
72054;BMP280;59918;51.280;7.950;2023-06-26T10:34:13;97955.91;;;28.44
72054;BMP280;59918;51.280;7.950;2023-06-26T10:36:38;97965.53;;;27.89
72054;BMP280;59918;51.280;7.950;2023-06-26T10:39:05;97962.69;;;27.61
72054;BMP280;59918;51.280;7.950;2023-06-26T10:41:36;97965.06;;;27.79
72054;BMP280;59918;51.280;7.950;2023-06-26T10:46:27;97962.44;;;29.17
72054;BMP280;59918;51.280;7.950;2023-06-26T10:49:01;97955.44;;;29.12
72054;BMP280;59918;51.280;7.950;2023-06-26T10:51:27;97949.94;;;30.23
72054;BMP280;59918;51.280;7.950;2023-06-26T10:54:00;97940.38;;;31.78
72054;BMP280;59918;51.280;7.950;2023-06-26T10:59:25;97940.88;;;32.34
72054;BMP280;59918;51.280;7.950;2023-06-26T11:02:04;97960.19;;;31.09
72054;BMP280;59918;51.280;7.950;2023-06-26T11:04:49;97972.59;;;30.01
72054;BMP280;59918;51.280;7.950;2023-06-26T11:12:43;97978.16;;;31.36
72054;BMP280;59918;51.280;7.950;2023-06-26T11:15:09;97954.81;;;32.70
72054;BMP280;59918;51.280;7.950;2023-06-26T11:17:43;97949.19;;;33.17
72054;BMP280;59918;51.280;7.950;2023-06-26T11:20:15;97954.75;;;33.58
72054;BMP280;59918;51.280;7.950;2023-06-26T11:22:42;97956.59;;;34.26
72054;BMP280;59918;51.280;7.950;2023-06-26T11:25:09;97966.66;;;34.14
72054;BMP280;59918;51.280;7.950;2023-06-26T11:27:40;97950.25;;;34.71
72054;BMP280;59918;51.280;7.950;2023-06-26T11:30:07;97952.84;;;33.59
72054;BMP280;59918;51.280;7.950;2023-06-26T11:32:33;97961.22;;;31.88
72054;BMP280;59918;51.280;7.950;2023-06-26T11:34:59;97969.69;;;30.98
72054;BMP280;59918;51.280;7.950;2023-06-26T11:37:27;97973.94;;;30.47
72054;BMP280;59918;51.280;7.950;2023-06-26T11:39:55;97963.16;;;32.02
72054;BMP280;59918;51.280;7.950;2023-06-26T11:42:23;97959.84;;;33.97
72054;BMP280;59918;51.280;7.950;2023-06-26T11:44:53;97952.56;;;34.92
72054;BMP280;59918;51.280;7.950;2023-06-26T11:47:19;97952.19;;;35.63
72054;BMP280;59918;51.280;7.950;2023-06-26T11:49:46;97951.78;;;36.78
72054;BMP280;59918;51.280;7.950;2023-06-26T11:52:16;97959.69;;;36.06
72054;BMP280;59918;51.280;7.950;2023-06-26T11:54:42;97975.41;;;34.29
72054;BMP280;59918;51.280;7.950;2023-06-26T11:57:08;97976.00;;;34.42
72054;BMP280;59918;51.280;7.950;2023-06-26T11:59:42;97974.00;;;33.83
72054;BMP280;59918;51.280;7.950;2023-06-26T12:02:11;97975.78;;;32.44
72054;BMP280;59918;51.280;7.950;2023-06-26T12:04:42;97979.28;;;31.47
72054;BMP280;59918;51.280;7.950;2023-06-26T12:07:09;97988.41;;;31.02
72054;BMP280;59918;51.280;7.950;2023-06-26T12:09:42;97994.69;;;30.65
72054;BMP280;59918;51.280;7.950;2023-06-26T12:12:08;97988.03;;;32.22
72054;BMP280;59918;51.280;7.950;2023-06-26T12:14:41;97980.59;;;33.88
72054;BMP280;59918;51.280;7.950;2023-06-26T12:17:10;97970.69;;;35.24
72054;BMP280;59918;51.280;7.950;2023-06-26T12:19:46;97962.41;;;35.80
72054;BMP280;59918;51.280;7.950;2023-06-26T12:22:11;97958.28;;;36.44
72054;BMP280;59918;51.280;7.950;2023-06-26T12:24:40;97966.06;;;37.35
72054;BMP280;59918;51.280;7.950;2023-06-26T12:27:23;97957.19;;;38.58
72054;BMP280;59918;51.280;7.950;2023-06-26T12:29:53;97938.50;;;39.24
72054;BMP280;59918;51.280;7.950;2023-06-26T12:32:19;97951.81;;;37.77
72054;BMP280;59918;51.280;7.950;2023-06-26T12:34:48;97973.34;;;35.97
72054;BMP280;59918;51.280;7.950;2023-06-26T12:37:16;97972.03;;;36.13
72054;BMP280;59918;51.280;7.950;2023-06-26T12:39:55;97968.84;;;35.05
72054;BMP280;59918;51.280;7.950;2023-06-26T12:42:22;97978.66;;;33.55
72054;BMP280;59918;51.280;7.950;2023-06-26T12:44:47;97986.13;;;32.34
72054;BMP280;59918;51.280;7.950;2023-06-26T12:47:17;97988.06;;;32.10
72054;BMP280;59918;51.280;7.950;2023-06-26T12:49:45;97973.44;;;33.92
72054;BMP280;59918;51.280;7.950;2023-06-26T12:52:12;97962.84;;;35.12
72054;BMP280;59918;51.280;7.950;2023-06-26T12:54:42;97968.84;;;35.05
72054;BMP280;59918;51.280;7.950;2023-06-26T12:57:08;97986.28;;;33.87
72054;BMP280;59918;51.280;7.950;2023-06-26T12:59:35;97986.31;;;32.68
72054;BMP280;59918;51.280;7.950;2023-06-26T13:02:04;97984.66;;;33.83
72054;BMP280;59918;51.280;7.950;2023-06-26T13:04:30;97979.38;;;34.58
72054;BMP280;59918;51.280;7.950;2023-06-26T13:06:55;98001.34;;;33.80
72054;BMP280;59918;51.280;7.950;2023-06-26T13:09:21;98008.56;;;32.75
72054;BMP280;59918;51.280;7.950;2023-06-26T13:11:47;98012.94;;;31.90
72054;BMP280;59918;51.280;7.950;2023-06-26T13:14:16;98016.94;;;31.49
72054;BMP280;59918;51.280;7.950;2023-06-26T13:16:41;98030.34;;;30.56
72054;BMP280;59918;51.280;7.950;2023-06-26T13:19:06;98035.06;;;30.10
72054;BMP280;59918;51.280;7.950;2023-06-26T13:21:32;98043.63;;;29.87
72054;BMP280;59918;51.280;7.950;2023-06-26T13:23:58;98030.34;;;29.58
72054;BMP280;59918;51.280;7.950;2023-06-26T13:26:23;98030.06;;;29.14
72054;BMP280;59918;51.280;7.950;2023-06-26T13:28:55;98032.06;;;29.26
72054;BMP280;59918;51.280;7.950;2023-06-26T13:31:20;98009.38;;;31.98
72054;BMP280;59918;51.280;7.950;2023-06-26T13:33:46;98000.06;;;34.79
72054;BMP280;59918;51.280;7.950;2023-06-26T13:36:11;97990.78;;;36.43
72054;BMP280;59918;51.280;7.950;2023-06-26T13:38:40;97999.22;;;37.13
72054;BMP280;59918;51.280;7.950;2023-06-26T13:41:05;98008.53;;;35.99
72054;BMP280;59918;51.280;7.950;2023-06-26T13:43:31;98026.81;;;34.83
72054;BMP280;59918;51.280;7.950;2023-06-26T13:45:56;98031.31;;;33.58
72054;BMP280;59918;51.280;7.950;2023-06-26T13:48:21;98024.56;;;33.18
72054;BMP280;59918;51.280;7.950;2023-06-26T13:50:47;98034.78;;;33.77
72054;BMP280;59918;51.280;7.950;2023-06-26T13:53:18;98036.13;;;34.17
72054;BMP280;59918;51.280;7.950;2023-06-26T13:55:46;98030.69;;;34.66
72054;BMP280;59918;51.280;7.950;2023-06-26T13:58:11;98034.47;;;36.50
72054;BMP280;59918;51.280;7.950;2023-06-26T14:00:43;98032.13;;;38.03
72054;BMP280;59918;51.280;7.950;2023-06-26T14:03:08;98021.78;;;39.00
72054;BMP280;59918;51.280;7.950;2023-06-26T14:05:33;98009.16;;;39.80
72054;BMP280;59918;51.280;7.950;2023-06-26T14:07:59;98022.75;;;40.64
72054;BMP280;59918;51.280;7.950;2023-06-26T14:12:59;98018.94;;;40.62
72054;BMP280;59918;51.280;7.950;2023-06-26T14:15:25;98031.84;;;39.37
72054;BMP280;59918;51.280;7.950;2023-06-26T14:17:53;98007.25;;;39.46
72054;BMP280;59918;51.280;7.950;2023-06-26T14:20:18;98007.13;;;40.22
72054;BMP280;59918;51.280;7.950;2023-06-26T14:22:45;98000.88;;;41.20
72054;BMP280;59918;51.280;7.950;2023-06-26T14:25:10;98007.44;;;40.41
72054;BMP280;59918;51.280;7.950;2023-06-26T14:27:36;98002.56;;;41.50
72054;BMP280;59918;51.280;7.950;2023-06-26T14:30:06;98014.97;;;40.84
72054;BMP280;59918;51.280;7.950;2023-06-26T14:32:31;98008.03;;;39.74